createdAt,value
2023-05-06T00:01:42.631Z,21.63
2023-05-06T00:04:09.723Z,17.42
2023-05-06T00:06:37.626Z,20.60
2023-05-06T00:09:06.084Z,22.55
2023-05-06T00:11:33.943Z,22.95
2023-05-06T00:14:01.164Z,24.00
2023-05-06T00:16:28.383Z,26.23
2023-05-06T00:18:55.601Z,21.98
2023-05-06T00:21:22.869Z,24.13
2023-05-06T00:23:50.000Z,23.15
2023-05-06T00:26:17.011Z,21.23
2023-05-06T00:28:44.028Z,18.73
2023-05-06T00:31:11.234Z,20.38
2023-05-06T00:33:39.909Z,21.67
2023-05-06T00:36:07.357Z,23.23
2023-05-06T00:38:34.611Z,21.42
2023-05-06T00:41:03.529Z,22.08
2023-05-06T00:43:30.730Z,20.10
2023-05-06T00:45:57.980Z,19.85
2023-05-06T00:48:25.452Z,20.85
2023-05-06T00:50:53.197Z,21.90
2023-05-06T00:53:24.543Z,21.63
2023-05-06T00:55:51.779Z,22.20
2023-05-06T00:58:20.552Z,19.48
2023-05-06T01:00:47.706Z,19.65
2023-05-06T01:03:14.761Z,18.77
2023-05-06T01:05:54.056Z,20.20
2023-05-06T01:08:53.961Z,22.10
2023-05-06T01:11:39.196Z,22.23
2023-05-06T01:14:15.758Z,27.33
2023-05-06T01:16:42.855Z,24.52
2023-05-06T01:19:16.237Z,24.83
2023-05-06T01:21:47.523Z,24.23
2023-05-06T01:24:14.953Z,25.23
2023-05-06T01:26:44.054Z,25.75
2023-05-06T01:29:12.209Z,25.50
2023-05-06T01:31:48.222Z,24.65
2023-05-06T01:34:26.928Z,26.50
2023-05-06T01:37:22.195Z,25.30
2023-05-06T01:39:50.214Z,26.92
2023-05-06T01:42:18.151Z,26.42
2023-05-06T01:44:45.853Z,30.33
2023-05-06T01:47:13.776Z,29.50
2023-05-06T01:49:41.389Z,28.95
2023-05-06T01:52:08.406Z,29.63
2023-05-06T01:54:35.350Z,27.27
2023-05-06T01:57:02.891Z,25.90
2023-05-06T01:59:29.942Z,27.05
2023-05-06T02:01:57.499Z,25.60
2023-05-06T02:04:25.363Z,27.55
2023-05-06T02:06:52.359Z,26.95
2023-05-06T02:09:19.282Z,33.20
2023-05-06T02:11:46.423Z,25.75
2023-05-06T02:14:13.600Z,25.15
2023-05-06T02:16:40.707Z,25.52
2023-05-06T02:19:07.798Z,26.95
2023-05-06T02:21:34.774Z,23.13
2023-05-06T02:24:02.127Z,23.33
2023-05-06T02:26:29.170Z,26.33
2023-05-06T02:28:56.371Z,26.75
2023-05-06T02:31:23.668Z,28.98
2023-05-06T02:33:50.808Z,28.17
2023-05-06T02:36:17.696Z,28.52
2023-05-06T02:38:45.265Z,22.65
2023-05-06T02:41:12.452Z,27.33
2023-05-06T02:43:39.508Z,24.88
2023-05-06T02:46:06.873Z,26.65
2023-05-06T02:48:33.981Z,25.92
2023-05-06T02:51:02.344Z,27.17
2023-05-06T02:53:29.745Z,29.38
2023-05-06T02:55:57.103Z,25.15
2023-05-06T02:58:27.131Z,29.70
2023-05-06T03:01:01.834Z,28.83
2023-05-06T03:03:29.092Z,28.20
2023-05-06T03:06:07.096Z,27.48
2023-05-06T03:08:52.397Z,28.40
2023-05-06T03:15:54.558Z,28.65
2023-05-06T03:18:22.423Z,29.83
2023-05-06T03:20:53.709Z,26.85
2023-05-06T03:23:21.898Z,28.95
2023-05-06T03:25:48.945Z,30.48
2023-05-06T03:28:15.762Z,27.23
2023-05-06T03:30:42.551Z,31.65
2023-05-06T03:33:09.418Z,28.15
2023-05-06T03:35:37.305Z,26.88
2023-05-06T03:38:04.238Z,30.88
2023-05-06T03:40:31.259Z,31.27
2023-05-06T03:42:58.157Z,29.63
2023-05-06T03:45:25.226Z,35.00
2023-05-06T03:47:52.115Z,38.15
2023-05-06T03:50:18.940Z,36.88
2023-05-06T03:52:45.972Z,37.53
2023-05-06T03:55:13.056Z,35.42
2023-05-06T03:57:40.111Z,37.63
2023-05-06T04:00:07.794Z,38.25
2023-05-06T04:02:37.760Z,39.30
2023-05-06T04:05:04.937Z,35.30
2023-05-06T04:07:31.771Z,35.38
2023-05-06T04:09:58.657Z,33.05
2023-05-06T04:12:27.982Z,36.75
2023-05-06T04:14:54.841Z,34.45
2023-05-06T04:17:21.715Z,38.03
2023-05-06T04:19:48.967Z,34.17
2023-05-06T04:22:15.916Z,33.90
2023-05-06T04:24:42.856Z,32.13
2023-05-06T04:27:09.696Z,34.30
2023-05-06T04:29:36.571Z,30.38
2023-05-06T04:32:04.858Z,30.83
2023-05-06T04:34:31.980Z,29.35
2023-05-06T04:37:01.475Z,28.50
2023-05-06T04:39:28.516Z,36.00
2023-05-06T04:42:04.058Z,35.42
2023-05-06T04:51:45.611Z,45.90
2023-05-06T04:54:12.625Z,42.67
2023-05-06T04:56:39.617Z,47.75
2023-05-06T04:59:06.601Z,49.20
2023-05-06T05:01:33.573Z,51.95
2023-05-06T05:04:00.705Z,39.97
2023-05-06T05:06:27.591Z,36.15
2023-05-06T05:08:55.515Z,34.30
2023-05-06T05:11:22.717Z,31.75
2023-05-06T05:13:50.182Z,33.38
2023-05-06T05:16:17.526Z,31.52
2023-05-06T05:18:44.586Z,32.03
2023-05-06T05:21:11.672Z,31.05
2023-05-06T05:23:38.585Z,33.33
2023-05-06T05:26:06.317Z,27.70
2023-05-06T05:28:33.415Z,31.58
2023-05-06T05:31:04.682Z,32.83
2023-05-06T05:33:31.899Z,31.45
2023-05-06T05:35:59.554Z,30.30
2023-05-06T05:38:26.712Z,34.47
2023-05-06T05:40:53.901Z,36.80
2023-05-06T05:43:22.996Z,31.77
2023-05-06T05:45:50.218Z,28.98
2023-05-06T05:48:17.273Z,30.65
2023-05-06T05:50:44.196Z,31.83
2023-05-06T05:53:11.244Z,29.17
2023-05-06T05:55:38.151Z,29.48
2023-05-06T05:58:05.461Z,29.00
2023-05-06T06:00:32.783Z,27.75
2023-05-06T06:03:00.084Z,29.67
2023-05-06T06:05:27.333Z,28.60
2023-05-06T06:07:54.428Z,27.08
2023-05-06T06:10:21.482Z,29.38
2023-05-06T06:12:48.605Z,26.65
2023-05-06T06:15:15.628Z,27.77
2023-05-06T06:17:43.183Z,28.38
2023-05-06T06:20:11.090Z,28.48
2023-05-06T06:22:38.160Z,27.83
2023-05-06T06:25:05.916Z,27.27
2023-05-06T06:27:36.867Z,27.48
2023-05-06T06:30:05.078Z,28.40
2023-05-06T06:32:32.056Z,25.33
2023-05-06T06:34:59.033Z,25.73
2023-05-06T06:37:26.143Z,23.73
2023-05-06T06:39:53.097Z,24.38
2023-05-06T06:42:20.099Z,27.83
2023-05-06T06:44:47.467Z,27.83
2023-05-06T06:47:14.668Z,26.38
2023-05-06T06:49:41.625Z,25.48
2023-05-06T06:52:08.734Z,28.27
2023-05-06T06:54:38.796Z,25.90
2023-05-06T06:57:08.978Z,27.27
2023-05-06T06:59:35.960Z,24.40
2023-05-06T07:02:03.399Z,24.60
2023-05-06T07:04:31.077Z,25.25
2023-05-06T07:06:58.199Z,24.10
2023-05-06T07:09:25.854Z,24.73
2023-05-06T07:11:53.016Z,23.17
2023-05-06T07:14:21.035Z,22.08
2023-05-06T07:16:50.021Z,22.08
2023-05-06T07:19:18.522Z,22.75
2023-05-06T07:21:46.003Z,22.40
2023-05-06T07:24:13.244Z,21.17
2023-05-06T07:26:41.785Z,21.75
2023-05-06T07:29:08.800Z,20.30
2023-05-06T07:31:35.985Z,22.08
2023-05-06T07:34:03.100Z,22.83
2023-05-06T07:36:31.099Z,20.80
2023-05-06T07:38:58.322Z,17.05
2023-05-06T07:41:25.558Z,21.50
2023-05-06T07:43:52.668Z,19.40
2023-05-06T07:46:20.230Z,19.80
2023-05-06T07:48:47.223Z,17.58
2023-05-06T07:51:14.225Z,18.83
2023-05-06T07:53:41.794Z,17.17
2023-05-06T07:56:08.948Z,17.55
2023-05-06T07:58:35.880Z,16.88
2023-05-06T08:01:03.688Z,18.30
2023-05-06T08:03:32.090Z,15.20
2023-05-06T08:06:00.506Z,17.30
2023-05-06T08:08:28.215Z,16.58
2023-05-06T08:10:59.080Z,15.50
2023-05-06T08:13:28.270Z,14.60
2023-05-06T08:15:55.920Z,19.92
2023-05-06T08:18:23.600Z,16.83
2023-05-06T08:20:51.394Z,13.38
2023-05-06T08:23:20.206Z,13.95
2023-05-06T08:25:48.262Z,15.00
2023-05-06T08:28:15.622Z,15.30
2023-05-06T08:30:42.755Z,13.90
2023-05-06T08:33:10.263Z,18.20
2023-05-06T08:35:37.460Z,11.95
2023-05-06T08:38:04.515Z,14.23
2023-05-06T08:40:33.788Z,14.25
2023-05-06T08:43:06.441Z,15.30
2023-05-06T08:45:33.684Z,14.40
2023-05-06T08:48:00.930Z,16.55
2023-05-06T08:50:28.299Z,14.07
2023-05-06T08:52:55.340Z,15.73
2023-05-06T08:55:24.402Z,15.15
2023-05-06T08:57:53.355Z,15.70
2023-05-06T09:00:20.841Z,14.40
2023-05-06T09:02:48.014Z,14.45
2023-05-06T09:05:15.597Z,14.27
2023-05-06T09:07:42.893Z,16.23
2023-05-06T09:10:13.903Z,13.02
2023-05-06T09:12:41.586Z,13.75
2023-05-06T09:15:10.781Z,13.23
2023-05-06T09:17:38.707Z,14.65
2023-05-06T09:20:09.211Z,11.90
2023-05-06T09:22:40.997Z,15.30
2023-05-06T09:25:11.700Z,11.77
2023-05-06T09:27:40.014Z,12.45
2023-05-06T09:30:09.319Z,15.43
2023-05-06T09:32:39.770Z,12.07
2023-05-06T09:35:08.560Z,12.50
2023-05-06T09:37:38.992Z,12.75
2023-05-06T09:40:06.999Z,11.05
2023-05-06T09:42:35.170Z,11.73
2023-05-06T09:45:02.597Z,11.70
2023-05-06T09:47:34.994Z,13.35
2023-05-06T09:50:03.362Z,11.68
2023-05-06T09:52:31.737Z,11.90
2023-05-06T09:54:59.402Z,12.25
2023-05-06T09:57:26.820Z,12.60
2023-05-06T09:59:55.644Z,11.10
2023-05-06T10:02:24.078Z,10.15
2023-05-06T10:04:53.143Z,11.25
2023-05-06T10:07:26.775Z,12.85
2023-05-06T10:09:54.766Z,10.68
2023-05-06T10:12:22.570Z,11.45
2023-05-06T10:14:51.569Z,10.43
2023-05-06T10:17:19.970Z,10.45
2023-05-06T10:19:48.528Z,11.25
2023-05-06T10:22:20.016Z,11.65
2023-05-06T10:24:56.188Z,13.02
2023-05-06T10:27:26.645Z,12.85
2023-05-06T10:29:58.145Z,11.68
2023-05-06T10:32:27.303Z,10.23
2023-05-06T10:35:01.777Z,9.48
2023-05-06T10:37:33.147Z,9.65
2023-05-06T10:40:00.960Z,9.73
2023-05-06T10:42:28.840Z,9.05
2023-05-06T10:45:01.129Z,9.70
2023-05-06T10:47:28.617Z,8.52
2023-05-06T10:50:27.371Z,7.30
2023-05-06T10:52:57.108Z,8.05
2023-05-06T10:55:35.529Z,8.98
2023-05-06T10:58:11.648Z,8.20
2023-05-06T11:00:38.805Z,8.77
2023-05-06T11:03:12.300Z,6.57
2023-05-06T11:05:49.518Z,10.57
2023-05-06T11:08:26.025Z,8.45
2023-05-06T11:10:54.113Z,8.38
2023-05-06T11:13:35.262Z,5.63
2023-05-06T11:16:03.278Z,7.28
2023-05-06T11:18:37.299Z,6.93
2023-05-06T11:21:34.214Z,6.00
2023-05-06T11:24:01.438Z,5.28
2023-05-06T11:26:28.826Z,5.18
2023-05-06T11:28:56.111Z,8.48
2023-05-06T11:31:23.344Z,5.82
2023-05-06T11:33:55.328Z,5.22
2023-05-06T11:36:24.290Z,7.20
2023-05-06T11:38:53.908Z,7.43
2023-05-06T11:41:24.892Z,6.15
2023-05-06T11:43:53.984Z,9.43
2023-05-06T11:46:23.620Z,6.63
2023-05-06T11:48:51.582Z,5.63
2023-05-06T11:51:25.650Z,5.82
2023-05-06T11:54:07.321Z,8.68
2023-05-06T11:56:45.668Z,9.05
2023-05-06T11:59:12.971Z,9.27
2023-05-06T12:01:44.136Z,6.28
2023-05-06T12:04:12.565Z,6.68
2023-05-06T12:06:40.747Z,7.30
2023-05-06T12:09:12.201Z,6.65
2023-05-06T12:11:42.620Z,6.80
2023-05-06T12:14:12.658Z,4.20
2023-05-06T12:16:40.128Z,5.80
2023-05-06T12:19:17.907Z,5.05
2023-05-06T12:21:46.648Z,6.68
2023-05-06T12:24:15.010Z,5.72
2023-05-06T12:26:50.091Z,6.90
2023-05-06T12:31:49.871Z,4.78
2023-05-06T12:34:19.309Z,7.93
2023-05-06T12:36:48.882Z,7.15
2023-05-06T12:39:17.674Z,5.50
2023-05-06T12:41:46.477Z,6.80
2023-05-06T12:44:39.435Z,4.15
2023-05-06T12:47:20.021Z,6.85
2023-05-06T12:49:51.303Z,3.50
2023-05-06T12:52:20.646Z,4.85
2023-05-06T12:54:48.897Z,5.20
2023-05-06T12:57:16.594Z,6.13
2023-05-06T12:59:44.806Z,4.80
2023-05-06T13:02:12.338Z,6.40
2023-05-06T13:04:40.013Z,5.47
2023-05-06T13:07:07.602Z,6.35
2023-05-06T13:09:34.738Z,5.82
2023-05-06T13:12:02.810Z,5.20
2023-05-06T13:14:29.992Z,5.32
2023-05-06T13:17:00.446Z,5.65
2023-05-06T13:19:32.796Z,4.30
2023-05-06T13:22:01.045Z,5.45
2023-05-06T13:24:28.638Z,7.40
2023-05-06T13:26:57.440Z,6.43
2023-05-06T13:29:24.935Z,9.38
2023-05-06T13:31:52.169Z,6.93
2023-05-06T13:34:19.679Z,7.00
2023-05-06T13:36:50.161Z,8.35
2023-05-06T13:39:17.790Z,11.05
2023-05-06T13:41:50.288Z,9.60
2023-05-06T13:44:18.332Z,9.23
2023-05-06T13:46:46.418Z,8.50
2023-05-06T13:49:17.217Z,7.28
2023-05-06T13:51:44.321Z,7.97
2023-05-06T13:54:11.759Z,6.93
2023-05-06T13:56:38.724Z,7.22
2023-05-06T13:59:05.718Z,7.50
2023-05-06T14:01:34.273Z,7.00
2023-05-06T14:04:01.346Z,6.70
2023-05-06T14:06:28.492Z,6.30
2023-05-06T14:08:55.882Z,8.57
2023-05-06T14:11:23.066Z,7.60
2023-05-06T14:13:50.490Z,8.40
2023-05-06T14:16:17.744Z,10.27
2023-05-06T14:18:44.838Z,10.30
2023-05-06T14:21:11.946Z,8.93
2023-05-06T14:23:39.447Z,9.65
2023-05-06T14:26:06.925Z,8.82
2023-05-06T14:28:34.224Z,8.15
2023-05-06T14:31:01.218Z,10.65
2023-05-06T14:33:28.918Z,8.98
2023-05-06T14:35:56.035Z,9.07
2023-05-06T14:38:23.484Z,10.32
2023-05-06T14:40:50.840Z,8.30
2023-05-06T14:43:18.032Z,8.35
2023-05-06T14:45:45.721Z,8.55
2023-05-06T14:48:12.868Z,9.57
2023-05-06T14:50:40.057Z,9.38
2023-05-06T14:53:10.705Z,9.32
2023-05-06T14:58:16.371Z,11.15
2023-05-06T15:00:43.533Z,11.10
2023-05-06T15:03:10.686Z,11.02
2023-05-06T15:05:38.161Z,12.48
2023-05-06T15:08:06.771Z,11.30
2023-05-06T15:10:34.136Z,11.90
2023-05-06T15:13:01.724Z,10.80
2023-05-06T15:15:29.135Z,9.25
2023-05-06T15:17:56.880Z,9.35
2023-05-06T15:20:24.815Z,7.53
2023-05-06T15:22:51.929Z,8.65
2023-05-06T15:25:30.929Z,8.93
2023-05-06T15:28:02.757Z,8.45
2023-05-06T15:30:30.199Z,8.55
2023-05-06T15:32:58.341Z,7.20
2023-05-06T15:35:25.846Z,8.15
2023-05-06T15:37:59.276Z,6.70
2023-05-06T15:40:27.059Z,8.77
2023-05-06T15:42:54.650Z,8.05
2023-05-06T15:45:22.486Z,9.48
2023-05-06T15:47:49.800Z,8.15
2023-05-06T15:50:32.788Z,9.13
2023-05-06T15:53:02.758Z,10.02
2023-05-06T15:55:35.223Z,13.52
2023-05-06T15:58:08.461Z,12.20
2023-05-06T16:00:35.616Z,8.75
2023-05-06T16:03:03.376Z,9.13
2023-05-06T16:05:31.289Z,9.50
2023-05-06T16:07:59.954Z,9.95
2023-05-06T16:10:27.333Z,8.07
2023-05-06T16:12:54.910Z,7.25
2023-05-06T16:15:22.083Z,9.73
2023-05-06T16:17:49.415Z,8.00
2023-05-06T16:20:16.452Z,7.75
2023-05-06T16:22:50.064Z,10.02
2023-05-06T16:25:19.797Z,8.23
2023-05-06T16:27:47.028Z,11.75
2023-05-06T16:30:14.887Z,11.77
2023-05-06T16:32:42.885Z,8.32
2023-05-06T16:35:10.808Z,10.38
2023-05-06T16:37:38.178Z,13.32
2023-05-06T16:40:05.815Z,16.77
2023-05-06T16:42:33.110Z,16.92
2023-05-06T16:45:00.792Z,14.02
2023-05-06T16:47:28.241Z,19.65
2023-05-06T16:49:55.823Z,10.45
2023-05-06T16:52:23.114Z,10.18
2023-05-06T16:54:51.813Z,11.15
2023-05-06T16:57:19.419Z,13.23
2023-05-06T16:59:49.389Z,9.38
2023-05-06T17:02:17.013Z,8.52
2023-05-06T17:04:44.253Z,6.97
2023-05-06T17:07:11.982Z,7.07
2023-05-06T17:09:39.666Z,9.32
2023-05-06T17:12:07.965Z,8.20
2023-05-06T17:14:35.771Z,9.02
2023-05-06T17:17:05.421Z,12.38
2023-05-06T17:19:34.912Z,12.18
2023-05-06T17:22:02.109Z,12.98
2023-05-06T17:24:29.263Z,11.00
2023-05-06T17:26:56.680Z,10.48
2023-05-06T17:29:26.822Z,12.70
2023-05-06T17:31:54.102Z,8.80
2023-05-06T17:36:49.020Z,9.00
2023-05-06T17:39:17.030Z,12.60
2023-05-06T17:41:44.023Z,10.57
2023-05-06T17:44:12.098Z,11.05
2023-05-06T17:46:40.206Z,8.02
2023-05-06T17:49:07.925Z,8.60
2023-05-06T17:51:34.888Z,9.10
2023-05-06T17:54:01.985Z,10.88
2023-05-06T17:56:30.214Z,12.43
2023-05-06T17:59:01.443Z,11.23
2023-05-06T18:01:29.771Z,8.65
2023-05-06T18:03:58.001Z,8.80
2023-05-06T18:06:25.431Z,8.10
2023-05-06T18:08:52.502Z,8.75
2023-05-06T18:11:19.886Z,8.68
2023-05-06T18:13:47.245Z,8.68
2023-05-06T18:16:14.557Z,10.15
2023-05-06T18:18:43.767Z,7.95
2023-05-06T18:21:10.947Z,8.65
2023-05-06T18:23:39.007Z,8.05
2023-05-06T18:26:06.603Z,10.07
2023-05-06T18:28:38.218Z,8.60
2023-05-06T18:31:06.407Z,9.80
2023-05-06T18:33:34.094Z,12.15
2023-05-06T18:36:01.574Z,6.90
2023-05-06T18:38:29.105Z,12.50
2023-05-06T18:40:57.001Z,9.23
2023-05-06T18:43:24.312Z,9.85
2023-05-06T18:45:53.211Z,11.10
2023-05-06T18:48:20.647Z,10.18
2023-05-06T18:50:48.238Z,11.13
2023-05-06T18:53:15.778Z,8.60
2023-05-06T18:55:43.454Z,10.23
2023-05-06T18:58:10.948Z,6.90
2023-05-06T19:00:38.438Z,8.82
2023-05-06T19:03:05.875Z,9.48
2023-05-06T19:05:33.575Z,7.80
2023-05-06T19:08:00.893Z,9.82
2023-05-06T19:10:28.528Z,9.38
2023-05-06T19:12:56.477Z,9.68
2023-05-06T19:15:23.889Z,15.82
2023-05-06T19:17:51.357Z,12.43
2023-05-06T19:20:19.783Z,12.23
2023-05-06T19:22:50.385Z,12.27
2023-05-06T19:25:17.884Z,18.77
2023-05-06T19:27:45.602Z,15.55
2023-05-06T19:30:13.538Z,19.85
2023-05-06T19:32:40.870Z,22.17
2023-05-06T19:35:09.666Z,20.73
2023-05-06T19:37:38.678Z,21.17
2023-05-06T19:40:08.351Z,23.83
2023-05-06T19:42:35.491Z,21.48
2023-05-06T19:45:10.454Z,20.13
2023-05-06T19:47:38.590Z,20.05
2023-05-06T19:50:12.272Z,20.10
2023-05-06T19:52:40.917Z,23.17
2023-05-06T19:55:09.103Z,25.92
2023-05-06T19:57:37.767Z,23.13
2023-05-06T20:00:10.261Z,23.20
2023-05-06T20:02:38.601Z,27.67
2023-05-06T20:05:07.332Z,22.73
2023-05-06T20:07:36.986Z,22.98
2023-05-06T20:10:04.904Z,22.67
2023-05-06T20:12:34.208Z,21.85
2023-05-06T20:15:01.841Z,20.75
2023-05-06T20:17:29.244Z,24.50
2023-05-06T20:19:59.149Z,23.05
2023-05-06T20:22:29.302Z,27.20
2023-05-06T20:25:19.090Z,23.42
2023-05-06T20:27:46.980Z,26.42
2023-05-06T20:30:14.938Z,22.75
2023-05-06T20:32:42.389Z,23.25
2023-05-06T20:35:11.981Z,23.10
2023-05-06T20:37:41.458Z,24.02
2023-05-06T20:40:10.044Z,20.00
2023-05-06T20:42:37.884Z,24.17
2023-05-06T20:45:05.769Z,23.00
2023-05-06T20:47:33.164Z,24.83
2023-05-06T20:50:01.520Z,24.25
2023-05-06T20:52:28.703Z,26.60
2023-05-06T20:54:56.560Z,24.27
2023-05-06T20:57:24.534Z,24.90
2023-05-06T20:59:53.036Z,24.20
2023-05-06T21:02:20.758Z,24.17
2023-05-06T21:04:48.254Z,27.60
2023-05-06T21:07:15.415Z,29.63
2023-05-06T21:09:42.475Z,28.90
2023-05-06T21:12:10.124Z,27.52
2023-05-06T21:14:37.591Z,29.45
2023-05-06T21:17:05.415Z,27.05
2023-05-06T21:19:32.820Z,26.67
2023-05-06T21:22:00.194Z,27.90
2023-05-06T21:24:27.761Z,27.02
2023-05-06T21:26:55.102Z,29.60
2023-05-06T21:29:22.522Z,31.25
2023-05-06T21:31:49.994Z,28.17
2023-05-06T21:34:18.242Z,31.83
2023-05-06T21:36:45.582Z,30.08
2023-05-06T21:39:14.256Z,30.45
2023-05-06T21:41:42.572Z,32.20
2023-05-06T21:44:10.617Z,28.25
2023-05-06T21:46:38.332Z,29.40
2023-05-06T21:49:05.625Z,29.60
2023-05-06T21:51:35.174Z,30.73
2023-05-06T21:54:03.479Z,31.15
2023-05-06T21:56:30.794Z,30.92
2023-05-06T21:58:57.771Z,28.60
2023-05-06T22:01:29.440Z,30.75
2023-05-06T22:03:57.348Z,31.67
2023-05-06T22:06:24.788Z,35.47
2023-05-06T22:08:52.471Z,31.90
2023-05-06T22:11:25.186Z,34.90
2023-05-06T22:13:53.051Z,34.97
2023-05-06T22:16:20.847Z,35.47
2023-05-06T22:18:48.510Z,38.15
2023-05-06T22:21:15.944Z,36.78
2023-05-06T22:23:43.614Z,34.08
2023-05-06T22:26:11.600Z,38.20
2023-05-06T22:28:38.950Z,34.88
2023-05-06T22:31:06.355Z,37.22
2023-05-06T22:33:34.335Z,42.28
2023-05-06T22:36:01.604Z,45.65
2023-05-06T22:38:28.928Z,40.13
2023-05-06T22:40:56.457Z,43.75
2023-05-06T22:43:23.893Z,43.70
2023-05-06T22:45:51.261Z,44.80
2023-05-06T22:48:18.938Z,43.45
2023-05-06T22:50:47.134Z,43.85
2023-05-06T22:53:15.719Z,42.72
2023-05-06T22:55:43.328Z,49.83
2023-05-06T22:58:10.845Z,48.22
2023-05-06T23:00:38.274Z,44.40
2023-05-06T23:03:06.350Z,47.35
2023-05-06T23:05:33.528Z,49.20
2023-05-06T23:08:00.848Z,42.58
2023-05-06T23:10:28.127Z,50.42
2023-05-06T23:12:55.988Z,50.50
2023-05-06T23:15:23.419Z,49.05
2023-05-06T23:17:51.240Z,49.38
2023-05-06T23:20:18.381Z,51.17
2023-05-06T23:22:45.609Z,52.53
2023-05-06T23:25:13.388Z,51.58
2023-05-06T23:27:41.372Z,55.92
2023-05-06T23:30:09.441Z,54.00
2023-05-06T23:32:36.965Z,56.33
2023-05-06T23:35:04.940Z,54.67
2023-05-06T23:37:32.210Z,57.75
2023-05-06T23:40:00.159Z,53.47
2023-05-06T23:42:27.127Z,54.38
2023-05-06T23:44:54.260Z,56.40
2023-05-06T23:47:21.341Z,55.05
2023-05-06T23:49:48.456Z,56.80
2023-05-06T23:52:15.590Z,58.00
2023-05-06T23:54:42.709Z,60.83
2023-05-06T23:57:10.187Z,54.58
2023-05-06T23:59:37.486Z,56.42
